sensor_id;sensor_type;location;lat;lon;timestamp;P1;durP1;ratioP1;P2;durP2;ratioP2
30337;SDS011;17143;51.888;5.408;2023-04-25T00:02:02;2.00;;;0.90;;
30337;SDS011;17143;51.888;5.408;2023-04-25T00:17:04;2.50;;;1.03;;
30337;SDS011;17143;51.888;5.408;2023-04-25T00:32:06;2.80;;;1.30;;
30337;SDS011;17143;51.888;5.408;2023-04-25T00:47:09;4.07;;;1.40;;
30337;SDS011;17143;51.888;5.408;2023-04-25T01:02:12;3.80;;;1.50;;
30337;SDS011;17143;51.888;5.408;2023-04-25T01:17:14;6.37;;;1.50;;
30337;SDS011;17143;51.888;5.408;2023-04-25T01:32:17;3.90;;;1.33;;
30337;SDS011;17143;51.888;5.408;2023-04-25T01:47:20;3.60;;;1.53;;
30337;SDS011;17143;51.888;5.408;2023-04-25T02:02:22;4.07;;;1.43;;
30337;SDS011;17143;51.888;5.408;2023-04-25T02:17:24;7.37;;;1.53;;
30337;SDS011;17143;51.888;5.408;2023-04-25T02:32:26;2.90;;;1.40;;
30337;SDS011;17143;51.888;5.408;2023-04-25T02:47:28;5.40;;;1.70;;
30337;SDS011;17143;51.888;5.408;2023-04-25T03:02:31;2.53;;;1.57;;
30337;SDS011;17143;51.888;5.408;2023-04-25T03:17:33;2.03;;;1.33;;
30337;SDS011;17143;51.888;5.408;2023-04-25T03:32:35;2.07;;;1.30;;
30337;SDS011;17143;51.888;5.408;2023-04-25T03:47:37;3.50;;;1.20;;
30337;SDS011;17143;51.888;5.408;2023-04-25T04:02:39;6.37;;;1.70;;
30337;SDS011;17143;51.888;5.408;2023-04-25T04:17:43;2.93;;;1.20;;
30337;SDS011;17143;51.888;5.408;2023-04-25T04:32:45;5.37;;;1.70;;
30337;SDS011;17143;51.888;5.408;2023-04-25T04:47:47;1.37;;;1.03;;
30337;SDS011;17143;51.888;5.408;2023-04-25T05:03:18;3.90;;;1.07;;
30337;SDS011;17143;51.888;5.408;2023-04-25T05:18:52;1.73;;;0.67;;
30337;SDS011;17143;51.888;5.408;2023-04-25T05:34:18;1.80;;;0.90;;
30337;SDS011;17143;51.888;5.408;2023-04-25T05:49:31;2.07;;;0.80;;
30337;SDS011;17143;51.888;5.408;2023-04-25T06:04:52;5.67;;;1.37;;
30337;SDS011;17143;51.888;5.408;2023-04-25T06:19:55;3.97;;;1.00;;
30337;SDS011;17143;51.888;5.408;2023-04-25T06:34:57;0.60;;;0.50;;
30337;SDS011;17143;51.888;5.408;2023-04-25T06:49:59;3.23;;;0.80;;
30337;SDS011;17143;51.888;5.408;2023-04-25T07:05:01;1.17;;;0.53;;
30337;SDS011;17143;51.888;5.408;2023-04-25T07:20:04;1.30;;;0.60;;
30337;SDS011;17143;51.888;5.408;2023-04-25T07:35:07;3.90;;;0.70;;
30337;SDS011;17143;51.888;5.408;2023-04-25T07:50:10;1.70;;;1.17;;
30337;SDS011;17143;51.888;5.408;2023-04-25T08:05:13;5.07;;;0.90;;
30337;SDS011;17143;51.888;5.408;2023-04-25T08:20:17;6.30;;;1.40;;
30337;SDS011;17143;51.888;5.408;2023-04-25T08:35:19;2.43;;;0.60;;
30337;SDS011;17143;51.888;5.408;2023-04-25T08:50:23;1.40;;;0.83;;
30337;SDS011;17143;51.888;5.408;2023-04-25T09:05:27;2.23;;;0.83;;
30337;SDS011;17143;51.888;5.408;2023-04-25T09:20:30;2.87;;;0.87;;
30337;SDS011;17143;51.888;5.408;2023-04-25T09:35:36;1.13;;;0.70;;
30337;SDS011;17143;51.888;5.408;2023-04-25T09:50:40;1.37;;;0.80;;
30337;SDS011;17143;51.888;5.408;2023-04-25T10:05:45;3.90;;;0.80;;
30337;SDS011;17143;51.888;5.408;2023-04-25T10:20:50;4.73;;;0.77;;
30337;SDS011;17143;51.888;5.408;2023-04-25T10:35:52;0.40;;;0.40;;
30337;SDS011;17143;51.888;5.408;2023-04-25T10:51:07;1.77;;;0.83;;
30337;SDS011;17143;51.888;5.408;2023-04-25T11:06:11;4.37;;;0.57;;
30337;SDS011;17143;51.888;5.408;2023-04-25T11:21:22;2.63;;;0.70;;
30337;SDS011;17143;51.888;5.408;2023-04-25T11:36:24;1.57;;;0.63;;
30337;SDS011;17143;51.888;5.408;2023-04-25T11:51:26;1.40;;;0.70;;
30337;SDS011;17143;51.888;5.408;2023-04-25T12:06:28;4.10;;;1.07;;
30337;SDS011;17143;51.888;5.408;2023-04-25T12:21:31;0.90;;;0.53;;
30337;SDS011;17143;51.888;5.408;2023-04-25T12:36:33;0.83;;;0.83;;
30337;SDS011;17143;51.888;5.408;2023-04-25T12:51:35;4.13;;;0.70;;
30337;SDS011;17143;51.888;5.408;2023-04-25T13:06:38;0.63;;;0.60;;
30337;SDS011;17143;51.888;5.408;2023-04-25T13:21:40;0.97;;;0.50;;
30337;SDS011;17143;51.888;5.408;2023-04-25T13:36:42;1.23;;;0.50;;
30337;SDS011;17143;51.888;5.408;2023-04-25T13:51:44;2.40;;;0.63;;
30337;SDS011;17143;51.888;5.408;2023-04-25T14:06:46;4.13;;;0.57;;
30337;SDS011;17143;51.888;5.408;2023-04-25T14:21:49;3.83;;;1.07;;
30337;SDS011;17143;51.888;5.408;2023-04-25T14:36:51;1.37;;;0.50;;
30337;SDS011;17143;51.888;5.408;2023-04-25T14:51:53;3.53;;;0.70;;
30337;SDS011;17143;51.888;5.408;2023-04-25T15:06:55;2.47;;;1.03;;
30337;SDS011;17143;51.888;5.408;2023-04-25T15:21:57;0.73;;;0.73;;
30337;SDS011;17143;51.888;5.408;2023-04-25T15:36:59;2.90;;;0.87;;
30337;SDS011;17143;51.888;5.408;2023-04-25T15:52:01;3.10;;;0.90;;
30337;SDS011;17143;51.888;5.408;2023-04-25T16:07:03;3.17;;;0.70;;
30337;SDS011;17143;51.888;5.408;2023-04-25T16:22:05;2.60;;;0.87;;
30337;SDS011;17143;51.888;5.408;2023-04-25T16:37:08;2.93;;;1.10;;
30337;SDS011;17143;51.888;5.408;2023-04-25T16:52:10;8.73;;;1.17;;
30337;SDS011;17143;51.888;5.408;2023-04-25T17:07:12;2.30;;;1.00;;
30337;SDS011;17143;51.888;5.408;2023-04-25T17:22:14;3.37;;;0.70;;
30337;SDS011;17143;51.888;5.408;2023-04-25T17:37:16;2.17;;;0.70;;
30337;SDS011;17143;51.888;5.408;2023-04-25T17:52:19;5.23;;;1.17;;
30337;SDS011;17143;51.888;5.408;2023-04-25T18:07:21;2.63;;;0.87;;
30337;SDS011;17143;51.888;5.408;2023-04-25T18:22:23;2.77;;;0.80;;
30337;SDS011;17143;51.888;5.408;2023-04-25T18:37:25;4.13;;;1.00;;
30337;SDS011;17143;51.888;5.408;2023-04-25T18:52:27;3.23;;;1.03;;
30337;SDS011;17143;51.888;5.408;2023-04-25T19:07:29;2.53;;;1.23;;
30337;SDS011;17143;51.888;5.408;2023-04-25T19:22:31;2.40;;;1.23;;
30337;SDS011;17143;51.888;5.408;2023-04-25T19:37:33;4.97;;;1.80;;
30337;SDS011;17143;51.888;5.408;2023-04-25T19:52:35;2.80;;;1.20;;
30337;SDS011;17143;51.888;5.408;2023-04-25T20:07:37;2.37;;;1.57;;
30337;SDS011;17143;51.888;5.408;2023-04-25T20:22:39;3.60;;;1.70;;
30337;SDS011;17143;51.888;5.408;2023-04-25T20:37:41;5.07;;;1.80;;
30337;SDS011;17143;51.888;5.408;2023-04-25T20:52:43;3.57;;;1.90;;
30337;SDS011;17143;51.888;5.408;2023-04-25T21:07:45;7.90;;;2.37;;
30337;SDS011;17143;51.888;5.408;2023-04-25T21:22:47;4.27;;;2.10;;
30337;SDS011;17143;51.888;5.408;2023-04-25T21:37:50;3.87;;;2.13;;
30337;SDS011;17143;51.888;5.408;2023-04-25T21:52:53;8.40;;;2.43;;
30337;SDS011;17143;51.888;5.408;2023-04-25T22:07:55;5.13;;;2.20;;
30337;SDS011;17143;51.888;5.408;2023-04-25T22:22:57;7.90;;;2.90;;
30337;SDS011;17143;51.888;5.408;2023-04-25T22:37:59;6.00;;;2.57;;
30337;SDS011;17143;51.888;5.408;2023-04-25T22:53:01;3.77;;;2.17;;
30337;SDS011;17143;51.888;5.408;2023-04-25T23:08:03;5.10;;;2.13;;
30337;SDS011;17143;51.888;5.408;2023-04-25T23:23:05;4.77;;;2.30;;
30337;SDS011;17143;51.888;5.408;2023-04-25T23:38:07;8.20;;;2.80;;
30337;SDS011;17143;51.888;5.408;2023-04-25T23:53:09;3.80;;;2.67;;
